createdAt,value
2018-12-15T00:00:10.310Z,101965.19
2018-12-15T00:02:36.256Z,101971.30
2018-12-15T00:05:02.308Z,101971.20
2018-12-15T00:07:28.286Z,101971.20
2018-12-15T00:09:54.377Z,101967.92
2018-12-15T00:12:20.404Z,101969.63
2018-12-15T00:14:46.361Z,101977.05
2018-12-15T00:17:12.406Z,101980.03
2018-12-15T00:19:38.362Z,101983.05
2018-12-15T00:22:04.323Z,101984.22
2018-12-15T00:24:30.303Z,101983.61
2018-12-15T00:26:56.275Z,101983.70
2018-12-15T00:29:22.230Z,101975.29
2018-12-15T00:31:48.208Z,101978.89
2018-12-15T00:34:14.214Z,101979.34
2018-12-15T00:36:40.148Z,101986.41
2018-12-15T00:39:06.133Z,101981.88
2018-12-15T00:41:32.087Z,101980.91
2018-12-15T00:43:58.071Z,101984.52
2018-12-15T00:46:24.095Z,101984.52
2018-12-15T00:48:50.074Z,101989.44
2018-12-15T00:51:16.067Z,101987.98
2018-12-15T00:53:42.121Z,101998.92
2018-12-15T00:56:08.078Z,101996.73
2018-12-15T00:58:34.054Z,101994.23
2018-12-15T01:01:00.025Z,101994.70
2018-12-15T01:03:25.974Z,101999.84
2018-12-15T01:05:51.941Z,102000.43
2018-12-15T01:08:18.056Z,101997.70
2018-12-15T01:10:44.021Z,102003.94
2018-12-15T01:13:09.976Z,102007.27
2018-12-15T01:15:35.969Z,102018.43
2018-12-15T01:18:01.921Z,102021.42
2018-12-15T01:20:27.878Z,102026.69
2018-12-15T01:22:53.837Z,102032.80
2018-12-15T01:25:19.793Z,102035.44
2018-12-15T01:27:45.803Z,102043.73
2018-12-15T01:30:11.757Z,102044.18
2018-12-15T01:32:37.720Z,102054.11
2018-12-15T01:35:03.680Z,102056.27
2018-12-15T01:37:29.634Z,102055.78
2018-12-15T01:39:55.584Z,102065.62
2018-12-15T01:42:21.553Z,102070.02
2018-12-15T01:44:47.576Z,102068.83
2018-12-15T01:47:14.162Z,102068.83
2018-12-15T01:49:40.143Z,102068.09
2018-12-15T01:52:06.098Z,102070.98
2018-12-15T01:54:32.073Z,102067.52
2018-12-15T01:56:58.157Z,102062.59
2018-12-15T01:59:24.125Z,102068.25
2018-12-15T02:01:50.085Z,102065.62
2018-12-15T02:04:16.081Z,102074.09
2018-12-15T02:06:42.124Z,102071.34
2018-12-15T02:09:08.173Z,102079.24
2018-12-15T02:11:34.227Z,102072.30
2018-12-15T02:14:00.297Z,102070.98
2018-12-15T02:16:26.257Z,102077.09
2018-12-15T02:18:52.212Z,102069.18
2018-12-15T02:21:18.178Z,102077.83
2018-12-15T02:23:44.126Z,102076.61
2018-12-15T02:26:10.123Z,102067.52
2018-12-15T02:28:36.193Z,102067.99
2018-12-15T02:31:02.225Z,102056.13
2018-12-15T02:33:28.161Z,102060.92
2018-12-15T02:35:54.170Z,102063.08
2018-12-15T02:38:20.133Z,102061.28
2018-12-15T02:40:46.131Z,102067.03
2018-12-15T02:43:12.168Z,102066.45
2018-12-15T02:45:38.180Z,102062.98
2018-12-15T02:48:04.133Z,102057.80
2018-12-15T02:50:30.106Z,102060.80
2018-12-15T02:52:56.072Z,102060.92
2018-12-15T02:55:22.051Z,102056.00
2018-12-15T02:57:47.993Z,102058.28
2018-12-15T03:00:13.949Z,102052.62
2018-12-15T03:02:39.901Z,102055.27
2018-12-15T03:05:05.851Z,102047.00
2018-12-15T03:07:31.839Z,102045.42
2018-12-15T03:09:57.793Z,102042.88
2018-12-15T03:12:23.789Z,102039.06
2018-12-15T03:14:49.813Z,102029.84
2018-12-15T03:17:15.786Z,102028.61
2018-12-15T03:19:41.763Z,102026.46
2018-12-15T03:22:07.718Z,102024.66
2018-12-15T03:24:33.677Z,102022.86
2018-12-15T03:26:59.625Z,102019.39
2018-12-15T03:29:25.786Z,102020.35
2018-12-15T03:31:51.751Z,102026.46
2018-12-15T03:34:17.703Z,102013.28
2018-12-15T03:36:43.675Z,102018.55
2018-12-15T03:39:09.640Z,102015.17
2018-12-15T03:41:35.673Z,102016.14
2018-12-15T03:44:01.639Z,102012.55
2018-12-15T03:46:27.686Z,102012.19
2018-12-15T03:48:53.758Z,102011.32
2018-12-15T03:51:19.694Z,102011.32
2018-12-15T03:53:45.664Z,102014.09
2018-12-15T03:56:11.597Z,102014.53
2018-12-15T03:58:37.630Z,102012.86
2018-12-15T04:01:03.733Z,102003.64
2018-12-15T04:03:29.785Z,102006.02
2018-12-15T04:05:55.746Z,102002.55
2018-12-15T04:08:21.702Z,102009.61
2018-12-15T04:10:47.674Z,102001.23
2018-12-15T04:13:13.641Z,102002.16
2018-12-15T04:15:39.606Z,101998.11
2018-12-15T04:18:05.568Z,102002.06
2018-12-15T04:20:31.517Z,102005.05
2018-12-15T04:22:57.498Z,102004.70
2018-12-15T04:25:23.467Z,102000.48
2018-12-15T04:27:49.438Z,102005.66
2018-12-15T04:30:15.413Z,101999.07
2018-12-15T04:32:45.065Z,101993.42
2018-12-15T04:35:09.401Z,101997.85
2018-12-15T04:37:35.369Z,102008.39
2018-12-15T04:40:01.327Z,101998.81
2018-12-15T04:42:27.538Z,102000.00
2018-12-15T04:44:53.520Z,101997.38
2018-12-15T04:47:19.490Z,101997.95
2018-12-15T04:49:45.444Z,101997.11
2018-12-15T04:52:11.385Z,101994.61
2018-12-15T04:54:37.341Z,101997.59
2018-12-15T04:57:03.294Z,101998.07
2018-12-15T04:59:29.284Z,101994.61
2018-12-15T05:01:55.299Z,102001.55
2018-12-15T05:04:21.265Z,102007.30
2018-12-15T05:06:47.214Z,101995.92
2018-12-15T05:09:13.231Z,101998.17
2018-12-15T05:11:39.202Z,101993.86
2018-12-15T05:14:05.145Z,102004.41
2018-12-15T05:16:31.123Z,102003.44
2018-12-15T05:18:57.104Z,101999.87
2018-12-15T05:21:23.168Z,101998.55
2018-12-15T05:23:49.120Z,101993.38
2018-12-15T05:26:15.195Z,101996.27
2018-12-15T05:28:41.211Z,101993.73
2018-12-15T05:31:07.204Z,101997.59
2018-12-15T05:33:33.269Z,102001.32
2018-12-15T05:35:59.266Z,101997.95
2018-12-15T05:38:25.241Z,102001.45
2018-12-15T05:40:51.190Z,102004.34
2018-12-15T05:43:17.161Z,101999.17
2018-12-15T05:45:43.227Z,101998.69
2018-12-15T05:48:09.185Z,101998.20
2018-12-15T05:50:35.151Z,101998.69
2018-12-15T05:53:01.108Z,101998.69
2018-12-15T05:55:27.129Z,101996.44
2018-12-15T05:57:53.097Z,101992.00
2018-12-15T06:00:19.052Z,101994.52
2018-12-15T06:02:45.114Z,101985.67
2018-12-15T06:05:11.174Z,101987.34
2018-12-15T06:07:37.147Z,101994.32
2018-12-15T06:10:03.098Z,101997.70
2018-12-15T06:12:29.065Z,101999.02
2018-12-15T06:14:55.027Z,101996.37
2018-12-15T06:17:20.994Z,101999.02
2018-12-15T06:19:46.946Z,102000.69
2018-12-15T06:22:12.910Z,101998.41
2018-12-15T06:24:38.862Z,101994.00
2018-12-15T06:27:04.848Z,102000.20
2018-12-15T06:29:30.794Z,102000.46
2018-12-15T06:31:56.745Z,101998.66
2018-12-15T06:34:22.705Z,102004.80
2018-12-15T06:36:49.376Z,102005.16
2018-12-15T06:39:15.446Z,101998.92
2018-12-15T06:41:41.398Z,102008.40
2018-12-15T06:44:07.390Z,102004.83
2018-12-15T06:46:33.361Z,102004.35
2018-12-15T06:48:59.317Z,102007.83
2018-12-15T06:51:25.295Z,102006.41
2018-12-15T06:53:51.248Z,102007.73
2018-12-15T06:56:17.190Z,102010.01
2018-12-15T06:58:43.185Z,102013.35
2018-12-15T07:01:09.147Z,102015.53
2018-12-15T07:03:35.120Z,102012.42
2018-12-15T07:06:01.131Z,102010.52
2018-12-15T07:08:27.172Z,102003.94
2018-12-15T07:10:53.118Z,102005.25
2018-12-15T07:13:19.129Z,102000.81
2018-12-15T07:15:45.165Z,101995.80
2018-12-15T07:18:11.315Z,101999.50
2018-12-15T07:20:37.262Z,102002.87
2018-12-15T07:23:03.250Z,101995.89
2018-12-15T07:25:29.194Z,101987.50
2018-12-15T07:27:55.167Z,101988.83
2018-12-15T07:30:21.135Z,101989.20
2018-12-15T07:32:47.229Z,101989.11
2018-12-15T07:35:13.386Z,101988.50
2018-12-15T07:37:39.353Z,101989.95
2018-12-15T07:40:05.349Z,101986.73
2018-12-15T07:42:31.466Z,101991.88
2018-12-15T07:44:57.671Z,101985.41
2018-12-15T07:47:23.643Z,101986.12
2018-12-15T07:49:49.601Z,101988.66
2018-12-15T07:52:15.808Z,101986.98
2018-12-15T07:54:41.846Z,101989.63
2018-12-15T07:57:08.126Z,101987.44
2018-12-15T07:59:34.181Z,101990.20
2018-12-15T08:02:00.229Z,101990.78
2018-12-15T08:04:26.292Z,101992.94
2018-12-15T08:06:52.306Z,101995.95
2018-12-15T08:09:18.692Z,101996.41
2018-12-15T08:11:44.705Z,101999.27
2018-12-15T08:14:10.786Z,102001.42
2018-12-15T08:16:36.763Z,101998.44
2018-12-15T08:19:02.735Z,102004.55
2018-12-15T08:21:28.772Z,102005.28
2018-12-15T08:23:54.932Z,102008.40
2018-12-15T08:26:20.877Z,102011.39
2018-12-15T08:28:46.967Z,102004.70
2018-12-15T08:31:13.062Z,102000.36
2018-12-15T08:33:39.030Z,102002.16
2018-12-15T08:36:05.008Z,102005.77
2018-12-15T08:38:30.937Z,102003.73
2018-12-15T08:40:57.105Z,102006.63
2018-12-15T08:43:23.080Z,101997.41
2018-12-15T08:45:50.082Z,102001.84
2018-12-15T08:48:16.090Z,102006.05
2018-12-15T08:50:42.035Z,102015.27
2018-12-15T08:53:08.031Z,102017.43
2018-12-15T08:55:34.040Z,102015.27
2018-12-15T08:58:00.006Z,102017.33
2018-12-15T09:00:25.973Z,102013.95
2018-12-15T09:02:51.946Z,102015.63
2018-12-15T09:05:17.914Z,102020.45
2018-12-15T09:07:43.872Z,102017.69
2018-12-15T09:10:09.837Z,102016.75
2018-12-15T09:12:35.801Z,102023.34
2018-12-15T09:15:01.823Z,102022.86
2018-12-15T09:17:27.769Z,102031.73
2018-12-15T09:19:53.725Z,102026.81
2018-12-15T09:22:19.825Z,102027.78
2018-12-15T09:24:45.887Z,102035.30
2018-12-15T09:27:11.838Z,102030.87
2018-12-15T09:29:37.904Z,102025.23
2018-12-15T09:32:03.929Z,102026.91
2018-12-15T09:34:29.950Z,102034.38
2018-12-15T09:36:56.070Z,102040.09
2018-12-15T09:39:22.058Z,102038.65
2018-12-15T09:41:48.086Z,102032.38
2018-12-15T09:44:14.049Z,102037.42
2018-12-15T09:46:40.457Z,102032.41
2018-12-15T09:49:06.425Z,102030.61
2018-12-15T09:51:32.380Z,102028.11
2018-12-15T09:53:58.362Z,102031.09
2018-12-15T09:56:24.331Z,102025.40
2018-12-15T09:58:50.354Z,102022.77
2018-12-15T10:01:16.380Z,102016.04
2018-12-15T10:03:42.360Z,102015.20
2018-12-15T10:06:08.343Z,102010.89
2018-12-15T10:08:34.302Z,102007.78
2018-12-15T10:11:00.386Z,102009.77
2018-12-15T10:13:26.766Z,101995.50
2018-12-15T10:15:52.717Z,101992.52
2018-12-15T10:18:18.694Z,101997.08
2018-12-15T10:20:44.634Z,102007.05
2018-12-15T10:23:10.682Z,101994.44
2018-12-15T10:25:37.076Z,101996.84
2018-12-15T10:28:03.062Z,101986.30
2018-12-15T10:30:29.009Z,101985.36
2018-12-15T10:32:55.121Z,101972.77
2018-12-15T10:35:21.098Z,101976.72
2018-12-15T10:37:47.082Z,101967.01
2018-12-15T10:40:13.084Z,101968.71
2018-12-15T10:42:39.047Z,101963.53
2018-12-15T10:45:05.032Z,101964.27
2018-12-15T10:47:31.262Z,101954.91
2018-12-15T10:49:57.222Z,101957.94
2018-12-15T10:52:23.213Z,101957.94
2018-12-15T10:54:49.158Z,101947.87
2018-12-15T10:57:15.108Z,101946.17
2018-12-15T10:59:41.078Z,101946.42
2018-12-15T11:02:07.052Z,101943.43
2018-12-15T11:04:33.097Z,101939.09
2018-12-15T11:06:59.079Z,101938.16
2018-12-15T11:09:25.043Z,101929.66
2018-12-15T11:11:51.217Z,101931.81
2018-12-15T11:14:17.268Z,101920.78
2018-12-15T11:16:43.287Z,101921.52
2018-12-15T11:19:09.417Z,101911.08
2018-12-15T11:21:35.377Z,101902.83
2018-12-15T11:24:01.342Z,101907.75
2018-12-15T11:26:27.289Z,101917.33
2018-12-15T11:28:53.257Z,101916.59
2018-12-15T11:31:19.207Z,101908.58
2018-12-15T11:33:45.161Z,101901.27
2018-12-15T11:36:11.217Z,101896.86
2018-12-15T11:38:37.286Z,101891.69
2018-12-15T11:41:03.264Z,101892.53
2018-12-15T11:43:29.216Z,101889.64
2018-12-15T11:45:55.181Z,101877.05
2018-12-15T11:48:21.153Z,101865.17
2018-12-15T11:50:47.132Z,101854.63
2018-12-15T11:53:13.078Z,101853.31
2018-12-15T11:55:39.026Z,101840.50
2018-12-15T11:58:05.030Z,101832.59
2018-12-15T12:00:31.098Z,101832.70
2018-12-15T12:02:57.064Z,101821.81
2018-12-15T12:05:23.153Z,101820.14
2018-12-15T12:07:49.136Z,101815.95
2018-12-15T12:10:15.089Z,101818.94
2018-12-15T12:12:41.073Z,101819.91
2018-12-15T12:15:07.050Z,101823.27
2018-12-15T12:17:33.010Z,101820.00
2018-12-15T12:19:59.013Z,101812.48
2018-12-15T12:22:24.989Z,101808.77
2018-12-15T12:24:50.979Z,101806.48
2018-12-15T12:27:16.935Z,101801.58
2018-12-15T12:29:42.898Z,101791.48
2018-12-15T12:32:08.858Z,101785.62
2018-12-15T12:34:35.042Z,101792.31
2018-12-15T12:37:01.016Z,101794.12
2018-12-15T12:39:26.986Z,101801.20
2018-12-15T12:41:52.970Z,101799.05
2018-12-15T12:44:18.943Z,101792.07
2018-12-15T12:46:44.920Z,101799.64
2018-12-15T12:49:10.905Z,101792.55
2018-12-15T12:51:36.881Z,101795.30
2018-12-15T12:54:02.894Z,101802.38
2018-12-15T12:56:28.956Z,101796.62
2018-12-15T12:58:54.966Z,101798.52
2018-12-15T13:01:20.966Z,101791.93
2018-12-15T13:03:47.085Z,101789.67
2018-12-15T13:06:13.086Z,101787.03
2018-12-15T13:08:39.042Z,101786.55
2018-12-15T13:11:05.030Z,101779.13
2018-12-15T13:13:30.985Z,101777.22
2018-12-15T13:15:56.965Z,101782.59
2018-12-15T13:18:22.922Z,101780.80
2018-12-15T13:20:48.885Z,101780.06
2018-12-15T13:23:14.845Z,101781.87
2018-12-15T13:25:40.827Z,101779.02
2018-12-15T13:28:06.816Z,101783.44
2018-12-15T13:30:32.768Z,101786.07
2018-12-15T13:32:58.745Z,101783.81
2018-12-15T13:35:24.787Z,101775.17
2018-12-15T13:37:50.764Z,101774.80
2018-12-15T13:40:16.721Z,101778.75
2018-12-15T13:42:42.685Z,101784.16
2018-12-15T13:45:08.650Z,101783.91
2018-12-15T13:47:34.646Z,101779.95
2018-12-15T13:52:32.535Z,101787.62
2018-12-15T13:54:58.556Z,101775.77
2018-12-15T13:57:24.545Z,101776.73
2018-12-15T13:59:50.542Z,101758.63
2018-12-15T14:02:16.555Z,101757.41
2018-12-15T14:04:42.514Z,101741.83
2018-12-15T14:07:08.468Z,101732.12
2018-12-15T14:09:34.440Z,101735.97
2018-12-15T14:12:00.603Z,101735.86
2018-12-15T14:14:26.565Z,101736.21
2018-12-15T14:16:52.485Z,101724.45
2018-12-15T14:19:18.440Z,101730.70
2018-12-15T14:21:44.398Z,101718.73
2018-12-15T14:24:10.388Z,101712.72
2018-12-15T14:26:36.422Z,101708.77
2018-12-15T14:29:02.385Z,101705.41
2018-12-15T14:31:28.331Z,101700.03
2018-12-15T14:33:54.395Z,101689.94
2018-12-15T14:36:20.371Z,101686.84
2018-12-15T14:38:46.322Z,101688.16
2018-12-15T14:41:12.305Z,101691.14
2018-12-15T14:43:38.288Z,101688.86
2018-12-15T14:46:04.317Z,101672.20
2018-12-15T14:48:30.283Z,101669.81
2018-12-15T14:50:56.274Z,101660.09
2018-12-15T14:53:22.241Z,101652.67
2018-12-15T14:55:48.229Z,101651.24
2018-12-15T14:58:14.186Z,101646.45
2018-12-15T15:00:40.229Z,101641.18
2018-12-15T15:03:06.229Z,101635.05
2018-12-15T15:05:32.177Z,101627.52
2018-12-15T15:07:58.214Z,101624.28
2018-12-15T15:10:24.199Z,101619.84
2018-12-15T15:12:50.224Z,101618.41
2018-12-15T15:15:17.174Z,101615.63
2018-12-15T15:17:43.126Z,101598.73
2018-12-15T15:20:09.134Z,101599.94
2018-12-15T15:22:35.171Z,101590.60
2018-12-15T15:25:01.140Z,101597.88
2018-12-15T15:27:27.119Z,101594.42
2018-12-15T15:29:53.311Z,101606.90
2018-12-15T15:32:19.276Z,101606.76
2018-12-15T15:34:45.271Z,101600.28
2018-12-15T15:37:11.273Z,101604.13
2018-12-15T15:39:37.407Z,101598.14
2018-12-15T15:42:03.380Z,101588.77
2018-12-15T15:44:29.362Z,101586.14
2018-12-15T15:46:55.317Z,101584.94
2018-12-15T15:49:21.334Z,101575.84
2018-12-15T15:51:47.334Z,101569.48
2018-12-15T15:54:13.299Z,101557.98
2018-12-15T15:56:40.425Z,101558.22
2018-12-15T15:59:06.367Z,101559.42
2018-12-15T16:01:32.347Z,101564.09
2018-12-15T16:03:58.328Z,101560.62
2018-12-15T16:06:24.323Z,101561.94
2018-12-15T16:08:50.355Z,101559.30
2018-12-15T16:11:16.360Z,101554.14
2018-12-15T16:13:42.309Z,101556.32
2018-12-15T16:16:08.309Z,101548.64
2018-12-15T16:18:34.419Z,101550.07
2018-12-15T16:21:00.414Z,101558.33
2018-12-15T16:23:26.445Z,101557.01
2018-12-15T16:25:52.463Z,101550.67
2018-12-15T16:28:18.427Z,101553.30
2018-12-15T16:30:44.416Z,101560.73
2018-12-15T16:33:10.387Z,101543.59
2018-12-15T16:35:36.556Z,101545.39
2018-12-15T16:38:02.536Z,101538.91
2018-12-15T16:40:28.541Z,101535.67
2018-12-15T16:42:54.568Z,101529.57
2018-12-15T16:45:21.150Z,101524.19
2018-12-15T16:47:47.110Z,101515.06
2018-12-15T16:50:13.069Z,101521.77
2018-12-15T16:52:39.050Z,101520.96
2018-12-15T16:55:05.032Z,101518.09
2018-12-15T16:57:30.994Z,101515.20
2018-12-15T16:59:56.939Z,101525.98
2018-12-15T17:02:22.909Z,101533.17
2018-12-15T17:04:48.894Z,101527.30
2018-12-15T17:07:14.862Z,101516.75
2018-12-15T17:09:40.829Z,101511.37
2018-12-15T17:12:06.811Z,101501.54
2018-12-15T17:14:32.790Z,101506.44
2018-12-15T17:16:58.763Z,101499.02
2018-12-15T17:19:24.800Z,101484.17
2018-12-15T17:21:50.764Z,101488.72
2018-12-15T17:24:16.811Z,101492.19
2018-12-15T17:26:42.894Z,101488.23
2018-12-15T17:29:08.866Z,101478.66
2018-12-15T17:31:34.821Z,101490.04
2018-12-15T17:34:00.908Z,101478.52
2018-12-15T17:36:26.932Z,101470.13
2018-12-15T17:38:52.938Z,101467.48
2018-12-15T17:41:18.905Z,101458.25
2018-12-15T17:43:44.857Z,101455.77
2018-12-15T17:46:10.830Z,101450.60
2018-12-15T17:48:36.876Z,101432.86
2018-12-15T17:51:03.969Z,101424.61
2018-12-15T17:53:30.066Z,101429.65
2018-12-15T17:55:56.029Z,101416.21
2018-12-15T17:58:22.031Z,101409.24
2018-12-15T18:00:48.317Z,101403.37
2018-12-15T18:03:14.702Z,101392.97
2018-12-15T18:05:40.796Z,101384.08
2018-12-15T18:08:06.803Z,101373.53
2018-12-15T18:10:32.862Z,101368.26
2018-12-15T18:12:58.836Z,101360.01
2018-12-15T18:15:25.323Z,101364.91
2018-12-15T18:17:51.915Z,101353.41
2018-12-15T18:20:18.274Z,101350.62
2018-12-15T18:22:44.228Z,101338.54
2018-12-15T18:25:10.199Z,101334.59
2018-12-15T18:27:36.285Z,101325.84
2018-12-15T18:30:02.312Z,101327.16
2018-12-15T18:32:28.311Z,101317.11
2018-12-15T18:34:54.366Z,101322.23
2018-12-15T18:37:20.338Z,101327.05
2018-12-15T18:39:46.625Z,101323.70
2018-12-15T18:42:12.752Z,101328.97
2018-12-15T18:44:38.959Z,101328.83
2018-12-15T18:47:04.951Z,101326.56
2018-12-15T18:49:30.951Z,101317.94
2018-12-15T18:51:56.953Z,101313.00
2018-12-15T18:54:22.964Z,101309.20
2018-12-15T18:56:48.989Z,101301.63
2018-12-15T18:59:14.966Z,101299.83
2018-12-15T19:01:40.919Z,101290.73
2018-12-15T19:04:06.905Z,101292.06
2018-12-15T19:06:33.015Z,101289.77
2018-12-15T19:09:04.047Z,101285.81
2018-12-15T19:11:27.016Z,101291.91
2018-12-15T19:13:53.006Z,101294.55
2018-12-15T19:16:19.001Z,101294.09
2018-12-15T19:18:44.993Z,101287.50
2018-12-15T19:21:10.981Z,101284.00
2018-12-15T19:23:36.938Z,101284.86
2018-12-15T19:26:02.907Z,101283.55
2018-12-15T19:28:29.244Z,101279.10
2018-12-15T19:30:55.204Z,101283.89
2018-12-15T19:33:21.187Z,101275.48
2018-12-15T19:35:47.152Z,101272.84
2018-12-15T19:38:13.156Z,101260.98
2018-12-15T19:40:39.138Z,101263.28
2018-12-15T19:43:05.097Z,101254.88
2018-12-15T19:45:31.078Z,101244.34
2018-12-15T19:47:57.063Z,101241.21
2018-12-15T19:50:23.076Z,101236.09
2018-12-15T19:52:49.182Z,101230.32
2018-12-15T19:55:15.231Z,101225.39
2018-12-15T19:57:41.209Z,101224.90
2018-12-15T20:00:07.178Z,101222.75
2018-12-15T20:02:33.128Z,101220.61
2018-12-15T20:04:59.109Z,101214.02
2018-12-15T20:07:25.084Z,101216.53
2018-12-15T20:09:51.145Z,101211.26
2018-12-15T20:12:17.110Z,101211.26
2018-12-15T20:14:43.089Z,101201.54
2018-12-15T20:17:09.107Z,101202.98
2018-12-15T20:19:35.180Z,101204.17
2018-12-15T20:22:01.179Z,101199.02
2018-12-15T20:24:27.118Z,101196.44
2018-12-15T20:26:53.126Z,101191.89
2018-12-15T20:29:19.088Z,101190.57
2018-12-15T20:31:45.088Z,101185.52
2018-12-15T20:34:11.078Z,101178.32
2018-12-15T20:36:37.053Z,101166.12
2018-12-15T20:39:03.078Z,101173.05
2018-12-15T20:41:29.102Z,101162.65
2018-12-15T20:43:55.499Z,101158.55
2018-12-15T20:46:21.465Z,101148.86
2018-12-15T20:48:47.429Z,101155.79
2018-12-15T20:51:13.461Z,101150.40
2018-12-15T20:53:39.430Z,101150.86
2018-12-15T20:56:05.427Z,101149.53
2018-12-15T20:58:31.421Z,101145.58
2018-12-15T21:00:57.375Z,101143.09
2018-12-15T21:03:23.370Z,101136.51
2018-12-15T21:05:49.400Z,101137.45
2018-12-15T21:08:15.362Z,101135.89
2018-12-15T21:10:41.458Z,101124.86
2018-12-15T21:13:07.495Z,101117.78
2018-12-15T21:15:33.486Z,101113.82
2018-12-15T21:17:59.534Z,101103.27
2018-12-15T21:20:25.587Z,101106.41
2018-12-15T21:22:51.607Z,101102.23
2018-12-15T21:25:17.631Z,101094.54
2018-12-15T21:27:43.604Z,101078.35
2018-12-15T21:30:09.631Z,101077.89
2018-12-15T21:32:35.673Z,101069.61
2018-12-15T21:35:01.670Z,101063.02
2018-12-15T21:37:27.845Z,101062.08
2018-12-15T21:39:53.912Z,101057.63
2018-12-15T21:42:19.870Z,101056.80
2018-12-15T21:44:45.875Z,101050.55
2018-12-15T21:47:11.950Z,101059.77
2018-12-15T21:49:38.039Z,101046.10
2018-12-15T21:52:04.008Z,101028.75
2018-12-15T21:54:30.136Z,101031.39
2018-12-15T21:56:56.113Z,101021.33
2018-12-15T21:59:22.108Z,101014.86
2018-12-15T22:01:48.077Z,101006.00
2018-12-15T22:04:14.199Z,101006.00
2018-12-15T22:06:40.159Z,100992.83
2018-12-15T22:09:06.166Z,100987.06
2018-12-15T22:11:32.170Z,100962.14
2018-12-15T22:13:58.232Z,100959.50
2018-12-15T22:16:24.222Z,100942.98
2018-12-15T22:18:50.265Z,100940.50
2018-12-15T22:21:16.516Z,100940.02
2018-12-15T22:23:42.533Z,100922.17
2018-12-15T22:26:08.513Z,100913.31
2018-12-15T22:28:34.620Z,100907.55
2018-12-15T22:31:00.607Z,100904.70
2018-12-15T22:33:26.590Z,100909.16
2018-12-15T22:35:52.642Z,100908.30
2018-12-15T22:38:18.646Z,100897.63
2018-12-15T22:40:44.655Z,100896.92
2018-12-15T22:43:10.715Z,100892.14
2018-12-15T22:45:36.783Z,100880.28
2018-12-15T22:48:03.835Z,100883.75
2018-12-15T22:50:29.840Z,100879.30
2018-12-15T22:52:55.978Z,100881.48
2018-12-15T22:55:21.940Z,100877.16
2018-12-15T22:57:47.917Z,100867.10
2018-12-15T23:00:13.977Z,100870.72
2018-12-15T23:02:40.286Z,100857.55
2018-12-15T23:05:06.239Z,100860.52
2018-12-15T23:07:32.275Z,100852.61
2018-12-15T23:09:58.288Z,100849.14
2018-12-15T23:12:24.451Z,100840.05
2018-12-15T23:14:50.466Z,100843.05
2018-12-15T23:17:16.512Z,100838.39
2018-12-15T23:19:42.604Z,100838.03
2018-12-15T23:22:08.599Z,100839.02
2018-12-15T23:24:34.543Z,100838.65
2018-12-15T23:27:00.602Z,100843.30
2018-12-15T23:29:26.569Z,100848.94
2018-12-15T23:31:52.546Z,100844.63
2018-12-15T23:34:18.611Z,100855.78
2018-12-15T23:36:44.594Z,100860.59
2018-12-15T23:39:10.713Z,100866.69
2018-12-15T23:41:36.664Z,100869.94
2018-12-15T23:44:02.662Z,100872.08
2018-12-15T23:46:29.166Z,100885.27
2018-12-15T23:48:55.265Z,100882.99
2018-12-15T23:51:21.239Z,100884.09
2018-12-15T23:53:48.014Z,100887.69
2018-12-15T23:56:13.966Z,100894.27
2018-12-15T23:58:40.042Z,100896.58
